Observation data for Knox City on 01/11/2018      Previous  Date  Next       Current Mesonet Observations  Soil Data  Daily Summary Page  Observations in Plain Language
KKN1 110600Z 19015KT 10/05 A2961 RMK A01 T01030048  RH  070%=      5-min Rain = 0
KKN1 110605Z 19013KT 10/05 A2961 RMK A01 T00980048  RH  072%=      5-min Rain = 0
KKN1 110610Z 19014KT 10/05 A2961 RMK A01 T00970048  RH  072%=      5-min Rain = 0
KKN1 110615Z 19016KT 10/05 A296 RMK A01 T01010046  RH  069%=      5-min Rain = 0
KKN1 110620Z 20014KT 10/05 A296 RMK A01 T01010046  RH  069%=      5-min Rain = 0
KKN1 110625Z 20014KT 10/05 A296 RMK A01 T00990046  RH  071%=      5-min Rain = 0
KKN1 110630Z 20013KT 10/05 A296 RMK A01 T00980045  RH  071%=      5-min Rain = 0
KKN1 110635Z 20013KT 10/05 A296 RMK A01 T00960045  RH  071%=      5-min Rain = 0
KKN1 110640Z 20014KT 10/05 A2959 RMK A01 T00950046  RH  072%=      5-min Rain = 0
KKN1 110645Z 20015KT 10/05 A2959 RMK A01 T00970045  RH  071%=      5-min Rain = 0
KKN1 110650Z 21015KT 10/04 A2959 RMK A01 T00990044  RH  070%=      5-min Rain = 0
KKN1 110655Z 21015KT 10/04 A2959 RMK A01 T00990044  RH  069%=      5-min Rain = 0
KKN1 110700Z 21015KT 10/04 A2959 RMK A01 T00990043  RH  069%=      5-min Rain = 0
KKN1 110705Z 21015KT 10/04 A2959 RMK A01 T00990043  RH  069%=      5-min Rain = 0
KKN1 110710Z 21014KT 10/04 A2959 RMK A01 T00980042  RH  069%=      5-min Rain = 0
KKN1 110715Z 21015KT 10/04 A2959 RMK A01 T00980042  RH  069%=      5-min Rain = 0
KKN1 110720Z 21015KT 10/04 A2958 RMK A01 T00970042  RH  069%=      5-min Rain = 0
KKN1 110725Z 22014KT 10/04 A2958 RMK A01 T00960041  RH  069%=      5-min Rain = 0
KKN1 110730Z 22013KT 10/04 A2958 RMK A01 T00950040  RH  070%=      5-min Rain = 0
KKN1 110735Z 22013KT 10/04 A2958 RMK A01 T00960040  RH  069%=      5-min Rain = 0
KKN1 110740Z 22013KT 10/04 A2958 RMK A01 T00980039  RH  068%=      5-min Rain = 0
KKN1 110745Z 22013KT 10/04 A2958 RMK A01 T00980039  RH  068%=      5-min Rain = 0
KKN1 110750Z 22012KT 10/04 A2958 RMK A01 T00970039  RH  068%=      5-min Rain = 0
KKN1 110755Z 22012KT 10/04 A2958 RMK A01 T00970038  RH  067%=      5-min Rain = 0
KKN1 110800Z 22012KT 10/04 A2958 RMK A01 T00960038  RH  068%=      5-min Rain = 0
KKN1 110805Z 22011KT 10/04 A2958 RMK A01 T00950037  RH  068%=      5-min Rain = 0
KKN1 110810Z 22011KT 09/04 A2958 RMK A01 T00930037  RH  069%=      5-min Rain = 0
KKN1 110815Z 22010KT 09/04 A2958 RMK A01 T00930036  RH  069%=      5-min Rain = 0
KKN1 110820Z 22011KT 09/04 A2958 RMK A01 T00930036  RH  069%=      5-min Rain = 0
KKN1 110825Z 22011KT 09/04 A2958 RMK A01 T00930035  RH  068%=      5-min Rain = 0
KKN1 110830Z 22011KT 09/04 A2958 RMK A01 T00940035  RH  067%=      5-min Rain = 0
KKN1 110835Z 22010KT 09/03 A2957 RMK A01 T00930034  RH  067%=      5-min Rain = 0
KKN1 110840Z 22010KT 09/03 A2957 RMK A01 T00930034  RH  068%=      5-min Rain = 0
KKN1 110845Z 22010KT 09/03 A2957 RMK A01 T00930033  RH  067%=      5-min Rain = 0
KKN1 110850Z 22011KT 10/03 A2956 RMK A01 T00950033  RH  066%=      5-min Rain = 0
KKN1 110855Z 23012KT 10/03 A2956 RMK A01 T00990032  RH  064%=      5-min Rain = 0
KKN1 110900Z 23012KT 11/03 A2956 RMK A01 T01050030  RH  061%=      5-min Rain = 0
KKN1 110905Z 24012G17KT 11/03 A2957 RMK A01 T01100028  RH  058%=      5-min Rain = 0
KKN1 110910Z 24013G18KT 12/03 A2956 RMK A01 T01170026  RH  054%=      5-min Rain = 0
KKN1 110915Z 24014G19KT 12/03 A2956 RMK A01 T01200025  RH  053%=      5-min Rain = 0
KKN1 110920Z 25015G21KT 12/02 A2956 RMK A01 T01240024  RH  051%=      5-min Rain = 0
KKN1 110925Z 25015G21KT 13/02 A2956 RMK A01 T01250023  RH  050%=      5-min Rain = 0
KKN1 110930Z 25014KT 13/02 A2956 RMK A01 T01270022  RH  050%=      5-min Rain = 0
KKN1 110935Z 25012G17KT 13/02 A2956 RMK A01 T01250022  RH  050%=      5-min Rain = 0
KKN1 110940Z 25013G19KT 13/02 A2956 RMK A01 T01260021  RH  049%=      5-min Rain = 0
KKN1 110945Z 25012G20KT 13/02 A2956 RMK A01 T01270021  RH  049%=      5-min Rain = 0
KKN1 110950Z 25013G19KT 13/02 A2957 RMK A01 T01280020  RH  048%=      5-min Rain = 0
KKN1 110955Z 25015G21KT 13/02 A2957 RMK A01 T01310019  RH  047%=      5-min Rain = 0
KKN1 111000Z 25015G21KT 13/02 A2957 RMK A01 T01330019  RH  046%=      5-min Rain = 0
KKN1 111005Z 25017G25KT 14/02 A2957 RMK A01 T01350018  RH  046%=      5-min Rain = 0
KKN1 111010Z 26017G26KT 14/02 A2957 RMK A01 T01360018  RH  045%=      5-min Rain = 0
KKN1 111015Z 25016G22KT 13/02 A2957 RMK A01 T01340019  RH  046%=      5-min Rain = 0
KKN1 111020Z 26017G23KT 14/02 A2957 RMK A01 T01350017  RH  045%=      5-min Rain = 0
KKN1 111025Z 25016G23KT 13/02 A2957 RMK A01 T01340018  RH  046%=      5-min Rain = 0
KKN1 111030Z 25018G28KT 14/02 A2957 RMK A01 T01350016  RH  045%=      5-min Rain = 0
KKN1 111035Z 25019G31KT 14/02 A2957 RMK A01 T01350016  RH  045%=      5-min Rain = 0
KKN1 111040Z 25018G26KT 13/02 A2958 RMK A01 T01330016  RH  045%=      5-min Rain = 0
KKN1 111045Z 25018G24KT 13/02 A2958 RMK A01 T01330015  RH  045%=      5-min Rain = 0
KKN1 111050Z 26016G22KT 13/02 A2959 RMK A01 T01310015  RH  046%=      5-min Rain = 0
KKN1 111055Z 27020G28KT 13/01 A296 RMK A01 T01310012  RH  045%=      5-min Rain = 0
KKN1 111100Z 28023G30KT 13/01 A2961 RMK A01 T01270010  RH  045%=      5-min Rain = 0
KKN1 111105Z 29021KT 12/01 A2961 RMK A01 T01220010  RH  047%=      5-min Rain = 0
KKN1 111110Z 29022G29KT 12/01 A2962 RMK A01 T01190009  RH  047%=      5-min Rain = 0
KKN1 111115Z 30021G27KT 12/01 A2963 RMK A01 T01170009  RH  048%=      5-min Rain = 0
KKN1 111120Z 31029G38KT 11/01 A2964 RMK A01 T01140009  RH  049%=      5-min Rain = 0
KKN1 111125Z 31026G33KT 11/01 A2965 RMK A01 T01050010  RH  052%=      5-min Rain = 0
KKN1 111130Z 31021G28KT 10/01 A2965 RMK A01 T01000012  RH  055%=      5-min Rain = 0
KKN1 111135Z 31025G32KT 10/01 A2966 RMK A01 T00960011  RH  056%=      5-min Rain = 0
KKN1 111140Z 31022G28KT 09/01 A2967 RMK A01 T00930011  RH  057%=      5-min Rain = 0
KKN1 111145Z 32023G32KT 09/01 A2968 RMK A01 T00910010  RH  058%=      5-min Rain = 0
KKN1 111150Z 33015G20KT 09/01 A2969 RMK A01 T00880011  RH  059%=      5-min Rain = 0
KKN1 111155Z 33015G24KT 09/01 A2969 RMK A01 T00870010  RH  059%=      5-min Rain = 0
KKN1 111200Z 33016G22KT 09/01 A2969 RMK A01 T00870010  RH  059%=      5-min Rain = 0
KKN1 111205Z 32018G27KT 09/01 A2969 RMK A01 T00860011  RH  060%=      5-min Rain = 0
KKN1 111210Z 32028G36KT 09/01 A297 RMK A01 T00850007  RH  059%=      5-min Rain = 0
KKN1 111215Z 33030G37KT 08/00 A2971 RMK A01 T00780000  RH  059%=      5-min Rain = 0
KKN1 111220Z 34029G38KT 07/M00 A2972 RMK A01 T00741003  RH  059%=      5-min Rain = 0
KKN1 111225Z 34023G30KT 07/M00 A2973 RMK A01 T00711003  RH  060%=      5-min Rain = 0
KKN1 111230Z 34023G32KT 07/M00 A2973 RMK A01 T00701004  RH  060%=      5-min Rain = 0
KKN1 111235Z 34019G26KT 07/M00 A2974 RMK A01 T00681004  RH  061%=      5-min Rain = 0
KKN1 111240Z 34023G31KT 07/M01 A2975 RMK A01 T00681006  RH  060%=      5-min Rain = 0
KKN1 111245Z 34023G31KT 07/M01 A2975 RMK A01 T00661008  RH  060%=      5-min Rain = 0
KKN1 111250Z 34021G31KT 06/M01 A2976 RMK A01 T00641010  RH  060%=      5-min Rain = 0
KKN1 111255Z 34022G29KT 06/M01 A2977 RMK A01 T00631011  RH  060%=      5-min Rain = 0
KKN1 111300Z 34018G27KT 06/M01 A2978 RMK A01 T00621012  RH  060%=      5-min Rain = 0
KKN1 111305Z 34014KT 06/M01 A2978 RMK A01 T00611012  RH  060%=      5-min Rain = 0
KKN1 111310Z 34014G20KT 06/M01 A2979 RMK A01 T00601012  RH  060%=      5-min Rain = 0
KKN1 111315Z 33018G25KT 06/M01 A2979 RMK A01 T00601014  RH  060%=      5-min Rain = 0
KKN1 111320Z 34019G27KT 06/M02 A298 RMK A01 T00581016  RH  059%=      5-min Rain = 0
KKN1 111325Z 33020G26KT 06/M02 A2981 RMK A01 T00571019  RH  059%=      5-min Rain = 0
KKN1 111330Z 33018G24KT 06/M02 A2982 RMK A01 T00551020  RH  059%=      5-min Rain = 0
KKN1 111335Z 32018G24KT 05/M02 A2982 RMK A01 T00531020  RH  060%=      5-min Rain = 0
KKN1 111340Z 32019G27KT 05/M02 A2983 RMK A01 T00501021  RH  061%=      5-min Rain = 0
KKN1 111345Z 34022G29KT 05/M02 A2984 RMK A01 T00481023  RH  060%=      5-min Rain = 0
KKN1 111350Z 34017G23KT 05/M03 A2985 RMK A01 T00461025  RH  061%=      5-min Rain = 0
KKN1 111355Z 34018G25KT 04/M03 A2985 RMK A01 T00441025  RH  061%=      5-min Rain = 0
KKN1 111400Z 34017G28KT 04/M03 A2986 RMK A01 T00441025  RH  061%=      5-min Rain = 0
KKN1 111405Z 34021G27KT 04/M03 A2986 RMK A01 T00421028  RH  061%=      5-min Rain = 0
KKN1 111410Z 33025G32KT 04/M03 A2987 RMK A01 T00391033  RH  060%=      5-min Rain = 0
KKN1 111415Z 33024G33KT 04/M04 A2988 RMK A01 T00351037  RH  060%=      5-min Rain = 0
KKN1 111420Z 33021G27KT 03/M04 A2989 RMK A01 T00331039  RH  060%=      5-min Rain = 0
KKN1 111425Z 33021G28KT 03/M04 A299 RMK A01 T00331041  RH  059%=      5-min Rain = 0
KKN1 111430Z 33022G32KT 03/M04 A299 RMK A01 T00311043  RH  059%=      5-min Rain = 0
KKN1 111435Z 33021G27KT 03/M05 A2991 RMK A01 T00301045  RH  058%=      5-min Rain = 0
KKN1 111440Z 34018G25KT 03/M05 A2992 RMK A01 T00301045  RH  058%=      5-min Rain = 0
KKN1 111445Z 34021G27KT 03/M05 A2992 RMK A01 T00281050  RH  057%=      5-min Rain = 0
KKN1 111450Z 35020G29KT 03/M05 A2993 RMK A01 T00281050  RH  057%=      5-min Rain = 0
KKN1 111455Z 35020G30KT 03/M05 A2993 RMK A01 T00271051  RH  057%=      5-min Rain = 0
KKN1 111500Z 35017G23KT 03/M05 A2994 RMK A01 T00271050  RH  057%=      5-min Rain = 0
KKN1 111505Z 35018G26KT 03/M05 A2994 RMK A01 T00271050  RH  057%=      5-min Rain = 0
KKN1 111510Z 34020G31KT 03/M05 A2994 RMK A01 T00281049  RH  058%=      5-min Rain = 0
KKN1 111515Z 34021G28KT 03/M05 A2995 RMK A01 T00271048  RH  058%=      5-min Rain = 0
KKN1 111520Z 34019G26KT 03/M05 A2995 RMK A01 T00271047  RH  059%=      5-min Rain = 0
KKN1 111525Z 33021G27KT 03/M05 A2996 RMK A01 T00261047  RH  059%=      5-min Rain = 0
KKN1 111530Z 33022G31KT 02/M05 A2996 RMK A01 T00231048  RH  060%=      5-min Rain = 0
KKN1 111535Z 33023G30KT 02/M05 A2997 RMK A01 T00211050  RH  060%=      5-min Rain = 0
KKN1 111540Z 33027G34KT 02/M05 A2997 RMK A01 T00201051  RH  060%=      5-min Rain = 0
KKN1 111545Z 34025G33KT 02/M05 A2998 RMK A01 T00191053  RH  060%=      5-min Rain = 0
KKN1 111550Z 34024G32KT 02/M05 A2998 RMK A01 T00191053  RH  060%=      5-min Rain = 0
KKN1 111555Z 35024G32KT 02/M05 A2999 RMK A01 T00191053  RH  059%=      5-min Rain = 0
KKN1 111600Z 34023G32KT 02/M05 A30 RMK A01 T00201053  RH  059%=      5-min Rain = 0
KKN1 111605Z 34024G31KT 02/M05 A30 RMK A01 T00201053  RH  059%=      5-min Rain = 0
KKN1 111610Z 35020G33KT 02/M05 A3001 RMK A01 T00221052  RH  059%=      5-min Rain = 0
KKN1 111615Z 35026G37KT 02/M05 A3001 RMK A01 T00221053  RH  058%=      5-min Rain = 0
KKN1 111620Z 35021G32KT 02/M05 A3001 RMK A01 T00241051  RH  058%=      5-min Rain = 0
KKN1 111625Z 35023G29KT 03/M05 A3002 RMK A01 T00251051  RH  058%=      5-min Rain = 0
KKN1 111630Z 34018G28KT 03/M05 A3002 RMK A01 T00281049  RH  057%=      5-min Rain = 0
KKN1 111635Z 34021G28KT 03/M05 A3003 RMK A01 T00301051  RH  056%=      5-min Rain = 0
KKN1 111640Z 34021G26KT 03/M05 A3003 RMK A01 T00281054  RH  056%=      5-min Rain = 0
KKN1 111645Z 33022G31KT 03/M05 A3004 RMK A01 T00301053  RH  055%=      5-min Rain = 0
KKN1 111650Z 34022G27KT 03/M06 A3005 RMK A01 T00281055  RH  055%=      5-min Rain = 0
KKN1 111655Z 34019G24KT 03/M06 A3005 RMK A01 T00271056  RH  055%=      5-min Rain = 0
KKN1 111700Z 35023G30KT 03/M05 A3006 RMK A01 T00291054  RH  055%=      5-min Rain = 0
KKN1 111705Z 35021G27KT 04/M05 A3006 RMK A01 T00361053  RH  053%=      5-min Rain = 0
KKN1 111710Z 34023G30KT 04/M06 A3006 RMK A01 T00351056  RH  052%=      5-min Rain = 0
KKN1 111715Z 33027G38KT 04/M06 A3006 RMK A01 T00381056  RH  051%=      5-min Rain = 0
KKN1 111720Z 35024G32KT 04/M06 A3007 RMK A01 T00371057  RH  051%=      5-min Rain = 0
KKN1 111725Z 34025G35KT 04/M06 A3007 RMK A01 T00401057  RH  050%=      5-min Rain = 0
KKN1 111730Z 34023G31KT 04/M06 A3007 RMK A01 T00421057  RH  049%=      5-min Rain = 0
KKN1 111735Z 34023G34KT 05/M06 A3008 RMK A01 T00451058  RH  048%=      5-min Rain = 0
KKN1 111740Z 34023G33KT 05/M06 A3008 RMK A01 T00461059  RH  047%=      5-min Rain = 0
KKN1 111745Z 34026G36KT 05/M06 A3008 RMK A01 T00461061  RH  046%=      5-min Rain = 0
KKN1 111750Z 34025G30KT 05/M06 A3008 RMK A01 T00461061  RH  046%=      5-min Rain = 0
KKN1 111755Z 34022G30KT 05/M06 A3008 RMK A01 T00481061  RH  046%=      5-min Rain = 0
KKN1 111800Z 33021G29KT 05/M06 A3008 RMK A01 T00451063  RH  046%=      5-min Rain = 0
KKN1 111805Z 34022G28KT 05/M06 A3008 RMK A01 T00471063  RH  045%=      5-min Rain = 0
KKN1 111810Z 34020G26KT 05/M06 A3008 RMK A01 T00491063  RH  044%=      5-min Rain = 0
KKN1 111815Z 33021G28KT 05/M07 A3008 RMK A01 T00511065  RH  043%=      5-min Rain = 0
KKN1 111820Z 34020G25KT 05/M07 A3008 RMK A01 T00541066  RH  042%=      5-min Rain = 0
KKN1 111825Z 34020G27KT 06/M07 A3008 RMK A01 T00551068  RH  041%=      5-min Rain = 0
KKN1 111830Z 34021G27KT 05/M07 A3009 RMK A01 T00521072  RH  041%=      5-min Rain = 0
KKN1 111835Z 33021G28KT 06/M07 A3009 RMK A01 T00551072  RH  040%=      5-min Rain = 0
KKN1 111840Z 34019G25KT 06/M07 A3009 RMK A01 T00571074  RH  039%=      5-min Rain = 0
KKN1 111845Z 34020G25KT 06/M08 A301 RMK A01 T00561075  RH  039%=      5-min Rain = 0
KKN1 111850Z 34023G31KT 06/M08 A301 RMK A01 T00571076  RH  038%=      5-min Rain = 0
KKN1 111855Z 35026G35KT 06/M08 A301 RMK A01 T00581076  RH  038%=      5-min Rain = 0
KKN1 111900Z 36023G34KT 06/M08 A301 RMK A01 T00591079  RH  037%=      5-min Rain = 0
KKN1 111905Z 34024G31KT 06/M08 A3009 RMK A01 T00601082  RH  036%=      5-min Rain = 0
KKN1 111910Z 35021G29KT 06/M09 A3009 RMK A01 T00591085  RH  035%=      5-min Rain = 0
KKN1 111915Z 36022G30KT 06/M09 A3009 RMK A01 T00641086  RH  034%=      5-min Rain = 0
KKN1 111920Z 35019G26KT 07/M09 A3009 RMK A01 T00711085  RH  032%=      5-min Rain = 0
KKN1 111925Z 35019G28KT 08/M09 A3009 RMK A01 T00751086  RH  031%=      5-min Rain = 0
KKN1 111930Z 35017G23KT 07/M09 A3009 RMK A01 T00741085  RH  032%=      5-min Rain = 0
KKN1 111935Z 34023G31KT 08/M09 A3009 RMK A01 T00751091  RH  030%=      5-min Rain = 0
KKN1 111940Z 34021G27KT 07/M09 A3009 RMK A01 T00741090  RH  031%=      5-min Rain = 0
KKN1 111945Z 35021G27KT 08/M09 A3009 RMK A01 T00791090  RH  030%=      5-min Rain = 0
KKN1 111950Z 35021G28KT 08/M09 A3009 RMK A01 T00801092  RH  029%=      5-min Rain = 0
KKN1 111955Z 34021G31KT 08/M09 A3009 RMK A01 T00831092  RH  028%=      5-min Rain = 0
KKN1 112000Z 34025G33KT 08/M10 A3009 RMK A01 T00821097  RH  027%=      5-min Rain = 0
KKN1 112005Z 34023G31KT 08/M10 A301 RMK A01 T00811099  RH  027%=      5-min Rain = 0
KKN1 112010Z 34023G29KT 08/M10 A301 RMK A01 T00821101  RH  027%=      5-min Rain = 0
KKN1 112015Z 34021G30KT 08/M10 A301 RMK A01 T00841101  RH  026%=      5-min Rain = 0
KKN1 112020Z 34020G27KT 09/M10 A301 RMK A01 T00861102  RH  026%=      5-min Rain = 0
KKN1 112025Z 33020G30KT 09/M10 A301 RMK A01 T00901101  RH  025%=      5-min Rain = 0
KKN1 112030Z 34024G35KT 09/M11 A3011 RMK A01 T00881105  RH  025%=      5-min Rain = 0
KKN1 112035Z 34020G28KT 09/M11 A3011 RMK A01 T00881105  RH  025%=      5-min Rain = 0
KKN1 112040Z 34020G28KT 09/M10 A3011 RMK A01 T00911103  RH  025%=      5-min Rain = 0
KKN1 112045Z 34022G29KT 09/M11 A301 RMK A01 T00891106  RH  024%=      5-min Rain = 0
KKN1 112050Z 34021G28KT 09/M10 A3011 RMK A01 T00901104  RH  025%=      5-min Rain = 0
KKN1 112055Z 34020G28KT 09/M10 A3011 RMK A01 T00941104  RH  024%=      5-min Rain = 0
KKN1 112100Z 34023G31KT 09/M11 A3011 RMK A01 T00931107  RH  023%=      5-min Rain = 0
KKN1 112105Z 35023G30KT 09/M11 A3012 RMK A01 T00911109  RH  023%=      5-min Rain = 0
KKN1 112110Z 35022G29KT 09/M11 A3012 RMK A01 T00921108  RH  023%=      5-min Rain = 0
KKN1 112115Z 35020G27KT 09/M11 A3012 RMK A01 T00931106  RH  024%=      5-min Rain = 0
KKN1 112120Z 34020G27KT 10/M10 A3012 RMK A01 T00951103  RH  024%=      5-min Rain = 0
KKN1 112125Z 34021G29KT 10/M10 A3012 RMK A01 T00961101  RH  024%=      5-min Rain = 0
KKN1 112130Z 34023G32KT 10/M10 A3012 RMK A01 T00961103  RH  024%=      5-min Rain = 0
KKN1 112135Z 34021G28KT 09/M11 A3013 RMK A01 T00941105  RH  024%=      5-min Rain = 0
KKN1 112140Z 35024G37KT 09/M11 A3013 RMK A01 T00931108  RH  023%=      5-min Rain = 0
KKN1 112145Z 00025G33KT 09/M12 A3013 RMK A01 T00911115  RH  022%=      5-min Rain = 0
KKN1 112150Z 35021G31KT 09/M11 A3013 RMK A01 T00921110  RH  023%=      5-min Rain = 0
KKN1 112155Z 35019G28KT 09/M11 A3014 RMK A01 T00941109  RH  023%=      5-min Rain = 0
KKN1 112200Z 35022G28KT 09/M11 A3014 RMK A01 T00931113  RH  022%=      5-min Rain = 0
KKN1 112205Z 35023G30KT 09/M11 A3015 RMK A01 T00921113  RH  023%=      5-min Rain = 0
KKN1 112210Z 35018G25KT 09/M11 A3015 RMK A01 T00931110  RH  023%=      5-min Rain = 0
KKN1 112215Z 35020G27KT 09/M11 A3015 RMK A01 T00921111  RH  023%=      5-min Rain = 0
KKN1 112220Z 35020G29KT 09/M11 A3015 RMK A01 T00921110  RH  023%=      5-min Rain = 0
KKN1 112225Z 34020G27KT 09/M11 A3016 RMK A01 T00911110  RH  023%=      5-min Rain = 0
KKN1 112230Z 34021G27KT 09/M11 A3016 RMK A01 T00881110  RH  024%=      5-min Rain = 0
KKN1 112235Z 34019G26KT 09/M11 A3016 RMK A01 T00881110  RH  024%=      5-min Rain = 0
KKN1 112240Z 35020G27KT 09/M11 A3017 RMK A01 T00861112  RH  024%=      5-min Rain = 0
KKN1 112245Z 35019G25KT 08/M11 A3017 RMK A01 T00831113  RH  024%=      5-min Rain = 0
KKN1 112250Z 35016G23KT 08/M11 A3017 RMK A01 T00821111  RH  024%=      5-min Rain = 0
KKN1 112255Z 34018G26KT 08/M11 A3017 RMK A01 T00811111  RH  025%=      5-min Rain = 0
KKN1 112300Z 33017KT 08/M11 A3018 RMK A01 T00791112  RH  025%=      5-min Rain = 0
KKN1 112305Z 34018G26KT 08/M11 A3018 RMK A01 T00761113  RH  025%=      5-min Rain = 0
KKN1 112310Z 34017G23KT 07/M11 A3018 RMK A01 T00741114  RH  025%=      5-min Rain = 0
KKN1 112315Z 34014G20KT 07/M11 A3019 RMK A01 T00731113  RH  026%=      5-min Rain = 0
KKN1 112320Z 35020G26KT 07/M12 A3019 RMK A01 T00711116  RH  025%=      5-min Rain = 0
KKN1 112325Z 35017G22KT 07/M12 A3019 RMK A01 T00691116  RH  026%=      5-min Rain = 0
KKN1 112330Z 34014KT 07/M11 A3019 RMK A01 T00681114  RH  026%=      5-min Rain = 0
KKN1 112335Z 34015G23KT 07/M11 A3019 RMK A01 T00671113  RH  027%=      5-min Rain = 0
KKN1 112340Z 34018G23KT 07/M11 A3019 RMK A01 T00661113  RH  027%=      5-min Rain = 0
KKN1 112345Z 34017KT 07/M11 A302 RMK A01 T00651112  RH  027%=      5-min Rain = 0
KKN1 112350Z 34015G21KT 06/M11 A302 RMK A01 T00631112  RH  028%=      5-min Rain = 0
KKN1 112355Z 35014KT 06/M11 A3021 RMK A01 T00611111  RH  028%=      5-min Rain = 0
KKN1 120000Z 34012KT 06/M11 A3021 RMK A01 T00591110  RH  029%=      5-min Rain = 0
KKN1 120005Z 34010KT 06/M11 A3022 RMK A01 T00561109  RH  030%=      5-min Rain = 0
KKN1 120010Z 33011G16KT 05/M11 A3022 RMK A01 T00541109  RH  030%=      5-min Rain = 0
KKN1 120015Z 33012KT 05/M11 A3022 RMK A01 T00541108  RH  030%=      5-min Rain = 0
KKN1 120020Z 33017G25KT 06/M11 A3023 RMK A01 T00561109  RH  030%=      5-min Rain = 0
KKN1 120025Z 34017G25KT 06/M11 A3023 RMK A01 T00561110  RH  029%=      5-min Rain = 0
KKN1 120030Z 34015G20KT 05/M11 A3023 RMK A01 T00541111  RH  030%=      5-min Rain = 0
KKN1 120035Z 34014G20KT 05/M11 A3023 RMK A01 T00511111  RH  030%=      5-min Rain = 0
KKN1 120040Z 34012KT 05/M11 A3024 RMK A01 T00501111  RH  031%=      5-min Rain = 0
KKN1 120045Z 34010KT 05/M11 A3024 RMK A01 T00461110  RH  031%=      5-min Rain = 0
KKN1 120050Z 34009G14KT 04/M11 A3024 RMK A01 T00441110  RH  032%=      5-min Rain = 0
KKN1 120055Z 35008KT 04/M11 A3025 RMK A01 T00411110  RH  033%=      5-min Rain = 0
KKN1 120100Z 34008KT 04/M11 A3025 RMK A01 T00371110  RH  034%=      5-min Rain = 0
KKN1 120105Z 34007KT 04/M11 A3025 RMK A01 T00361109  RH  034%=      5-min Rain = 0
KKN1 120110Z 34009KT 04/M11 A3026 RMK A01 T00391107  RH  034%=      5-min Rain = 0
KKN1 120115Z 34008KT 04/M11 A3026 RMK A01 T00381107  RH  034%=      5-min Rain = 0
KKN1 120120Z 34007KT 04/M11 A3026 RMK A01 T00351106  RH  035%=      5-min Rain = 0
KKN1 120125Z 35007KT 03/M10 A3026 RMK A01 T00331104  RH  036%=      5-min Rain = 0
KKN1 120130Z 35008KT 03/M10 A3026 RMK A01 T00331103  RH  037%=      5-min Rain = 0
KKN1 120135Z 34008KT 03/M10 A3026 RMK A01 T00321102  RH  037%=      5-min Rain = 0
KKN1 120140Z 34008KT 03/M10 A3027 RMK A01 T00321100  RH  038%=      5-min Rain = 0
KKN1 120145Z 34008KT 03/M10 A3027 RMK A01 T00311099  RH  038%=      5-min Rain = 0
KKN1 120150Z 34009KT 03/M10 A3027 RMK A01 T00311098  RH  039%=      5-min Rain = 0
KKN1 120155Z 34010KT 03/M10 A3027 RMK A01 T00321097  RH  039%=      5-min Rain = 0
KKN1 120200Z 34010KT 03/M10 A3028 RMK A01 T00321097  RH  039%=      5-min Rain = 0
KKN1 120205Z 34010KT 03/M10 A3028 RMK A01 T00321097  RH  039%=      5-min Rain = 0
KKN1 120210Z 34009KT 03/M10 A3028 RMK A01 T00301096  RH  039%=      5-min Rain = 0
KKN1 120215Z 34008KT 03/M10 A3028 RMK A01 T00281096  RH  040%=      5-min Rain = 0
KKN1 120220Z 34009KT 03/M10 A3029 RMK A01 T00271096  RH  040%=      5-min Rain = 0
KKN1 120225Z 34010KT 03/M10 A3029 RMK A01 T00271095  RH  041%=      5-min Rain = 0
KKN1 120230Z 34010KT 03/M09 A3029 RMK A01 T00271094  RH  041%=      5-min Rain = 0
KKN1 120235Z 34010KT 03/M09 A303 RMK A01 T00281094  RH  041%=      5-min Rain = 0
KKN1 120240Z 34009KT 03/M09 A303 RMK A01 T00271094  RH  041%=      5-min Rain = 0
KKN1 120245Z 34009KT 03/M09 A303 RMK A01 T00251093  RH  042%=      5-min Rain = 0
KKN1 120250Z 35009KT 02/M09 A303 RMK A01 T00241093  RH  042%=      5-min Rain = 0
KKN1 120255Z 35011G16KT 03/M09 A303 RMK A01 T00261092  RH  042%=      5-min Rain = 0
KKN1 120300Z 35012KT 03/M09 A303 RMK A01 T00271092  RH  041%=      5-min Rain = 0
KKN1 120305Z 35012KT 03/M09 A303 RMK A01 T00281092  RH  041%=      5-min Rain = 0
KKN1 120310Z 35012G17KT 03/M09 A3031 RMK A01 T00291093  RH  041%=      5-min Rain = 0
KKN1 120315Z 35012KT 03/M09 A3031 RMK A01 T00281093  RH  041%=      5-min Rain = 0
KKN1 120320Z 35011KT 03/M09 A3031 RMK A01 T00271093  RH  041%=      5-min Rain = 0
KKN1 120325Z 36011KT 03/M09 A3031 RMK A01 T00261092  RH  042%=      5-min Rain = 0
KKN1 120330Z 36011KT 02/M09 A3031 RMK A01 T00241092  RH  042%=      5-min Rain = 0
KKN1 120335Z 36011KT 02/M09 A3031 RMK A01 T00241092  RH  042%=      5-min Rain = 0
KKN1 120340Z 00010KT 02/M09 A3031 RMK A01 T00221092  RH  043%=      5-min Rain = 0
KKN1 120345Z 00009KT 02/M09 A3031 RMK A01 T00201092  RH  044%=      5-min Rain = 0
KKN1 120350Z 01009KT 02/M09 A3031 RMK A01 T00201092  RH  044%=      5-min Rain = 0
KKN1 120355Z 01010KT 02/M09 A3031 RMK A01 T00191092  RH  044%=      5-min Rain = 0
KKN1 120400Z 01011KT 02/M09 A3031 RMK A01 T00191092  RH  044%=      5-min Rain = 0
KKN1 120405Z 00011KT 02/M09 A3031 RMK A01 T00191092  RH  044%=      5-min Rain = 0
KKN1 120410Z 00010KT 02/M09 A3031 RMK A01 T00181092  RH  044%=      5-min Rain = 0
KKN1 120415Z 01010KT 02/M09 A3031 RMK A01 T00181092  RH  044%=      5-min Rain = 0
KKN1 120420Z 00011KT 02/M09 A3031 RMK A01 T00181093  RH  044%=      5-min Rain = 0
KKN1 120425Z 00009KT 02/M09 A3031 RMK A01 T00171093  RH  044%=      5-min Rain = 0
KKN1 120430Z 36009KT 02/M09 A3031 RMK A01 T00151093  RH  045%=      5-min Rain = 0
KKN1 120435Z 00008KT 01/M09 A3031 RMK A01 T00131093  RH  046%=      5-min Rain = 0
KKN1 120440Z 00008KT 01/M09 A3032 RMK A01 T00121093  RH  046%=      5-min Rain = 0
KKN1 120445Z 00007KT 01/M09 A3032 RMK A01 T00101093  RH  047%=      5-min Rain = 0
KKN1 120450Z 01008KT 01/M09 A3031 RMK A01 T00091093  RH  047%=      5-min Rain = 0
KKN1 120455Z 01007KT 01/M09 A3031 RMK A01 T00091093  RH  047%=      5-min Rain = 0
KKN1 120500Z 01007KT 01/M09 A3031 RMK A01 T00071094  RH  047%=      5-min Rain = 0
KKN1 120505Z 00007KT 01/M09 A3032 RMK A01 T00061094  RH  048%=      5-min Rain = 0
KKN1 120510Z 35005KT 00/M10 A3032 RMK A01 T00011095  RH  049%=      5-min Rain = 0
KKN1 120515Z 36005KT M00/M10 A3033 RMK A01 T10021096  RH  050%=      5-min Rain = 0
KKN1 120520Z 00004KT M00/M10 A3033 RMK A01 T10031096  RH  050%=      5-min Rain = 0
KKN1 120525Z 35005KT M00/M10 A3033 RMK A01 T10041097  RH  050%=      5-min Rain = 0
KKN1 120530Z 35005KT M01/M10 A3033 RMK A01 T10091097  RH  052%=      5-min Rain = 0
KKN1 120535Z 36005KT M01/M10 A3033 RMK A01 T10101097  RH  052%=      5-min Rain = 0
KKN1 120540Z 01005KT M01/M10 A3033 RMK A01 T10111096  RH  053%=      5-min Rain = 0
KKN1 120545Z 01006KT M01/M10 A3033 RMK A01 T10101095  RH  053%=      5-min Rain = 0
KKN1 120550Z 00005KT M01/M10 A3033 RMK A01 T10101096  RH  053%=      5-min Rain = 0
KKN1 120555Z 35005KT M01/M10 A3033 RMK A01 T10131098  RH  053%=      5-min Rain = 0

Page generated in 0.0278 seconds.